Time;durP1;ratioP1;P1;durP2;ratioP2;P2;SDS_P1;SDS_P2;PMS_P1;PMS_P2;Temp;Humidity;BMP_temperature;BMP_pressure;BME280_temperature;BME280_humidity;BME280_pressure;Samples;Min_cycle;Max_cycle;Signal;HPM_P1;HPM_P2
2023/09/19 00:00:19;;;;;;;4.70;4.10;;;;;;;18.89;70.98;100053.94;106163;1291;73243;-58
2023/09/19 00:03:06;;;;;;;4.50;4.20;;;;;;;18.85;70.57;100048.77;105500;1291;68503;-56
2023/09/19 00:05:52;;;;;;;4.90;4.50;;;;;;;18.83;70.48;100039.98;104851;1293;70201;-56
2023/09/19 00:08:39;;;;;;;5.40;4.10;;;;;;;18.82;70.57;100037.95;104819;1292;64708;-57
2023/09/19 00:11:26;;;;;;;9.00;4.90;;;;;;;18.78;70.42;100026.10;104855;1291;60197;-56
2023/09/19 00:14:14;;;;;;;6.20;4.40;;;;;;;18.77;70.43;100019.90;104866;1292;72269;-55
2023/09/19 00:17:00;;;;;;;6.40;3.90;;;;;;;18.73;70.70;100007.05;104926;1292;69055;-56
2023/09/19 00:19:51;;;;;;;5.60;4.60;;;;;;;18.65;72.37;100021.52;104869;1294;71370;-56
2023/09/19 00:22:43;;;;;;;5.70;4.30;;;;;;;18.54;70.97;100019.33;104916;1291;63294;-56
2023/09/19 00:25:32;;;;;;;7.20;4.60;;;;;;;18.53;71.07;100023.55;104863;1292;60464;-56
2023/09/19 00:28:19;;;;;;;6.10;4.40;;;;;;;18.51;71.34;100034.30;104889;1292;73225;-56
2023/09/19 00:31:08;;;;;;;8.50;4.90;;;;;;;18.47;70.97;100033.71;104517;1291;605451;-55
2023/09/19 00:33:56;;;;;;;5.30;3.90;;;;;;;18.40;71.13;100038.96;106191;1292;71192;-55
2023/09/19 00:36:43;;;;;;;8.10;4.50;;;;;;;18.34;71.88;100042.81;106011;1291;60469;-56
2023/09/19 00:39:31;;;;;;;6.70;4.50;;;;;;;18.32;71.20;100043.10;104892;1292;60364;-56
2023/09/19 00:42:21;;;;;;;4.80;4.30;;;;;;;18.27;71.62;100048.64;104909;1292;76590;-56
2023/09/19 00:45:12;;;;;;;5.70;4.30;;;;;;;18.28;71.76;100047.73;104887;1291;67215;-56
2023/09/19 00:48:03;;;;;;;8.30;4.30;;;;;;;18.28;71.63;100047.86;106170;1291;73291;-55
2023/09/19 00:50:50;;;;;;;6.60;4.60;;;;;;;18.27;71.52;100042.52;105032;1292;60380;-55
2023/09/19 00:53:39;;;;;;;6.90;4.70;;;;;;;18.23;71.79;100036.34;104865;1292;60367;-56
2023/09/19 00:56:25;;;;;;;9.90;4.40;;;;;;;18.19;71.80;100037.39;104825;1292;72364;-56
2023/09/19 00:59:12;;;;;;;4.40;4.00;;;;;;;18.17;73.28;100038.23;104903;1291;67971;-56
2023/09/19 01:02:00;;;;;;;5.60;3.80;;;;;;;18.15;71.92;100035.90;104869;1292;71114;-56
2023/09/19 01:04:46;;;;;;;4.40;3.40;;;;;;;18.14;72.38;100031.10;105278;1291;60373;-55
2023/09/19 01:07:35;;;;;;;5.10;3.60;;;;;;;18.13;72.20;100032.52;104885;1290;60343;-55
2023/09/19 01:10:22;;;;;;;6.80;3.60;;;;;;;18.12;72.03;100037.10;104879;1295;76460;-55
2023/09/19 01:13:28;;;;;;;9.30;3.20;;;;;;;18.07;73.69;100052.04;105034;1289;67242;-56
2023/09/19 01:16:23;;;;;;;3.80;3.10;;;;;;;17.99;72.73;100055.66;104941;1289;71245;-54
2023/09/19 01:19:41;;;;;;;4.40;3.20;;;;;;;17.95;73.09;100050.84;105036;1289;59132;-56
2023/09/19 01:22:48;;;;;;;5.30;3.10;;;;;;;17.94;73.05;100041.65;104761;1290;61062;-55
2023/09/19 01:26:08;;;;;;;4.40;3.30;;;;;;;17.94;73.27;100026.85;104977;1292;72518;-55
2023/09/19 01:29:34;;;;;;;7.70;3.70;;;;;;;17.91;72.99;100034.81;104927;1292;67221;-55
2023/09/19 01:32:24;;;;;;;5.80;3.40;;;;;;;17.89;73.78;100032.16;104671;1292;72069;-56
2023/09/19 01:35:13;;;;;;;5.00;3.60;;;;;;;17.85;73.23;100030.97;104990;1289;60370;-55
2023/09/19 01:37:59;;;;;;;6.20;3.20;;;;;;;17.84;73.43;100022.95;104939;1293;60353;-56
2023/09/19 01:41:03;;;;;;;8.20;3.50;;;;;;;17.83;75.62;100013.27;105002;1289;73645;-57
2023/09/19 01:43:50;;;;;;;6.00;3.60;;;;;;;17.78;74.08;100017.56;104939;1289;70318;-57
2023/09/19 01:46:40;;;;;;;4.20;3.50;;;;;;;17.77;74.49;100027.92;105599;1289;72591;-57
2023/09/19 01:49:55;;;;;;;4.60;3.50;;;;;;;17.76;76.15;100037.39;105077;1289;60357;-56
2023/09/19 01:53:04;;;;;;;5.00;3.30;;;;;;;17.73;75.06;100031.42;105043;1289;60767;-56
2023/09/19 01:55:53;;;;;;;4.90;3.10;;;;;;;17.72;74.87;100025.91;104956;1289;72505;-55
2023/09/19 01:58:48;;;;;;;4.30;2.80;;;;;;;17.72;74.85;100021.73;105024;1289;67323;-57
2023/09/19 02:01:37;;;;;;;6.80;3.30;;;;;;;17.72;75.22;100021.58;104976;1292;73089;-57
2023/09/19 02:04:22;;;;;;;6.30;3.50;;;;;;;17.70;75.24;100019.59;105541;1291;60564;-57
2023/09/19 02:07:09;;;;;;;3.40;2.70;;;;;;;17.69;76.12;100012.47;105036;1292;60364;-56
2023/09/19 02:09:55;;;;;;;6.50;3.30;;;;;;;17.68;75.23;100007.13;105077;1289;311507;-57
2023/09/19 02:12:41;;;;;;;4.40;2.90;;;;;;;17.68;75.36;100002.25;104993;1292;67335;-56
2023/09/19 02:15:27;;;;;;;5.90;4.20;;;;;;;17.67;75.08;100006.02;104984;1292;76064;-57
2023/09/19 02:18:16;;;;;;;4.70;3.10;;;;;;;17.67;74.88;100009.34;105003;1292;352580;-57
2023/09/19 02:21:04;;;;;;;4.50;3.60;;;;;;;17.64;74.25;100009.80;104876;1292;60367;-57
2023/09/19 02:23:51;;;;;;;5.70;4.10;;;;;;;17.61;74.55;100009.77;104917;1292;72462;-57
2023/09/19 02:26:37;;;;;;;5.20;4.40;;;;;;;17.59;75.24;100010.98;104952;1292;71164;-56
2023/09/19 02:29:24;;;;;;;4.90;4.50;;;;;;;17.57;75.02;100010.55;104957;1289;71279;-57
2023/09/19 02:32:11;;;;;;;4.80;4.30;;;;;;;17.55;75.09;100011.33;104856;1291;60322;-56
2023/09/19 02:35:00;;;;;;;4.70;4.30;;;;;;;17.55;74.73;100017.27;104899;1292;61474;-56
2023/09/19 02:37:47;;;;;;;4.90;4.10;;;;;;;17.54;75.37;100012.77;104909;1294;74967;-57
2023/09/19 02:40:35;;;;;;;5.30;4.00;;;;;;;17.54;76.48;100009.84;105142;1292;67576;-55
2023/09/19 02:43:22;;;;;;;6.60;4.40;;;;;;;17.53;75.64;100011.94;104851;1293;74440;-57
2023/09/19 02:46:09;;;;;;;4.90;4.20;;;;;;;17.54;75.65;100015.41;104923;1291;61085;-55
2023/09/19 02:48:55;;;;;;;5.50;4.10;;;;;;;17.53;77.45;100010.55;104901;1292;64240;-56
2023/09/19 02:51:41;;;;;;;9.10;3.60;;;;;;;17.53;75.35;100011.97;104960;1289;72398;-57
2023/09/19 02:54:28;;;;;;;4.20;3.20;;;;;;;17.53;75.90;100015.27;104882;1292;71572;-56
2023/09/19 02:57:16;;;;;;;;;;;;;;;17.53;75.75;100019.83;104993;1289;71252;-56
2023/09/19 03:00:04;;;;;;;4.50;3.30;;;;;;;17.51;75.58;100020.60;104878;1290;60718;-57
2023/09/19 03:02:55;;;;;;;6.80;3.40;;;;;;;17.50;75.48;100017.55;104942;1292;60376;-56
2023/09/19 03:05:46;;;;;;;4.80;3.00;;;;;;;17.47;75.41;100018.73;104890;1295;72509;-55
2023/09/19 03:08:35;;;;;;;8.50;3.20;;;;;;;17.42;75.59;100009.96;104890;1292;67409;-57
2023/09/19 03:11:23;;;;;;;4.90;2.80;;;;;;;17.37;75.51;100014.42;104805;1294;70424;-57
2023/09/19 03:14:10;;;;;;;5.60;3.30;;;;;;;17.31;76.71;100015.80;106273;1289;58239;-57
2023/09/19 03:16:56;;;;;;;7.80;2.80;;;;;;;17.26;77.11;100013.46;105233;1291;60335;-56
2023/09/19 03:19:42;;;;;;;8.20;2.60;;;;;;;17.20;76.64;100014.27;104874;1292;75204;-57
2023/09/19 03:22:28;;;;;;;3.80;2.90;;;;;;;17.15;77.04;100002.71;104945;1293;68277;-57
2023/09/19 03:25:15;;;;;;;3.60;2.60;;;;;;;17.10;76.87;100004.70;104853;1292;71723;-56
2023/09/19 03:28:05;;;;;;;;;;;;;;;17.06;76.41;100007.88;104867;1292;60564;-55
2023/09/19 03:31:06;;;;;;;4.50;2.60;;;;;;;17.01;75.86;100007.27;104854;1291;60750;-56
2023/09/19 03:33:52;;;;;;;5.80;2.20;;;;;;;16.96;76.20;100008.40;104823;1292;72446;-56
2023/09/19 03:36:39;;;;;;;5.10;2.30;;;;;;;16.92;77.16;100004.79;104865;1292;68573;-56
2023/09/19 03:39:26;;;;;;;2.80;2.10;;;;;;;16.87;77.39;100004.33;104880;1294;73501;-55
2023/09/19 03:42:12;;;;;;;6.90;2.90;;;;;;;16.86;78.94;99997.09;104878;1293;61098;-56
2023/09/19 03:45:04;;;;;;;2.50;2.30;;;;;;;16.83;77.74;99997.61;104851;1292;61251;-56
2023/09/19 03:47:50;;;;;;;3.00;1.90;;;;;;;16.80;77.41;99998.80;104896;1294;75496;-56
2023/09/19 03:50:37;;;;;;;3.50;2.30;;;;;;;16.79;77.75;99998.64;104873;1292;67296;-57
2023/09/19 03:53:23;;;;;;;;;;;;;;;16.77;77.92;100006.45;104308;1292;306652;-57
2023/09/19 03:56:09;;;;;;;4.00;2.70;;;;;;;16.75;77.53;100008.45;104698;1290;64211;-56
2023/09/19 03:58:55;;;;;;;5.30;3.10;;;;;;;16.73;77.97;100000.56;104732;1292;60555;-57
2023/09/19 04:01:41;;;;;;;3.80;2.60;;;;;;;16.72;78.65;99997.81;104855;1291;72413;-57
2023/09/19 04:04:29;;;;;;;3.50;2.90;;;;;;;16.69;78.23;100007.20;104866;1292;71434;-57
2023/09/19 04:07:16;;;;;;;3.30;3.00;;;;;;;16.68;81.16;100010.55;104723;1292;71683;-56
2023/09/19 04:10:03;;;;;;;5.40;3.80;;;;;;;16.64;79.40;100015.79;104827;1292;60360;-56
2023/09/19 04:12:53;;;;;;;5.80;4.50;;;;;;;16.61;79.17;100013.36;105020;1292;60611;-57
2023/09/19 04:15:40;;;;;;;6.70;4.90;;;;;;;16.58;78.82;100008.30;104813;1292;75637;-58
2023/09/19 04:18:27;;;;;;;5.00;4.20;;;;;;;16.56;78.38;100000.90;104776;1293;69997;-58
2023/09/19 04:21:13;;;;;;;4.90;4.50;;;;;;;16.55;78.37;100000.23;104794;1292;71233;-57
2023/09/19 04:23:59;;;;;;;6.00;5.50;;;;;;;16.54;78.63;100001.14;104629;1292;60430;-57
2023/09/19 04:26:46;;;;;;;7.30;5.30;;;;;;;16.50;77.96;99998.02;104724;1292;60749;-58
2023/09/19 04:29:32;;;;;;;4.50;4.00;;;;;;;16.48;78.07;100004.94;104827;1293;72473;-57
2023/09/19 04:32:18;;;;;;;;;;;;;;;16.46;79.12;100008.69;104823;1291;71336;-58
2023/09/19 04:35:10;;;;;;;5.40;3.40;;;;;;;16.43;78.85;100016.66;104790;1292;72261;-57
2023/09/19 04:37:56;;;;;;;3.60;3.00;;;;;;;16.41;78.48;100021.27;104870;1292;60824;-58
2023/09/19 04:40:42;;;;;;;3.10;2.80;;;;;;;16.43;79.13;100023.29;104773;1295;59234;-59
2023/09/19 04:43:30;;;;;;;5.50;3.20;;;;;;;16.43;78.92;100026.41;104823;1291;72457;-57
2023/09/19 04:46:17;;;;;;;4.70;3.30;;;;;;;16.43;79.34;100023.97;104872;1292;67333;-58
2023/09/19 04:49:03;;;;;;;5.90;3.00;;;;;;;16.43;78.73;100018.42;104805;1291;75389;-57
2023/09/19 04:51:50;;;;;;;3.50;3.20;;;;;;;16.43;80.19;100015.79;104904;1292;60702;-57
2023/09/19 04:54:36;;;;;;;5.90;3.80;;;;;;;16.42;80.76;100012.20;104743;1292;60499;-57
2023/09/19 04:57:23;;;;;;;5.00;3.70;;;;;;;16.42;79.58;100014.14;104813;1291;72408;-58
2023/09/19 05:00:12;;;;;;;5.10;3.30;;;;;;;16.43;79.62;100022.08;104825;1292;67261;-58
2023/09/19 05:02:58;;;;;;;3.80;3.50;;;;;;;16.44;78.97;100022.36;105389;1291;71340;-57
2023/09/19 05:05:44;;;;;;;5.80;3.60;;;;;;;16.45;78.75;100021.08;104811;1291;60368;-54
2023/09/19 05:08:31;;;;;;;8.40;3.80;;;;;;;16.46;79.05;100027.30;104818;1293;60248;-57
2023/09/19 05:11:24;;;;;;;4.70;4.10;;;;;;;16.47;78.90;100034.20;104783;1292;75289;-58
2023/09/19 05:14:11;;;;;;;4.80;3.50;;;;;;;16.49;79.39;100037.59;104828;1292;67280;-57
2023/09/19 05:16:57;;;;;;;6.10;4.00;;;;;;;16.49;79.14;100040.38;104776;1295;73180;-57
2023/09/19 05:19:44;;;;;;;5.50;4.20;;;;;;;16.48;79.00;100042.34;104640;1292;281362;-56
2023/09/19 05:22:31;;;;;;;6.60;3.90;;;;;;;16.47;80.28;100048.80;104863;1292;61726;-56
2023/09/19 05:25:18;;;;;;;8.30;3.90;;;;;;;16.48;80.11;100050.16;104819;1292;72385;-56
2023/09/19 05:28:10;;;;;;;4.10;3.70;;;;;;;16.51;79.33;100046.52;104786;1293;73055;-57
2023/09/19 05:30:56;;;;;;;5.00;3.80;;;;;;;16.55;79.38;100051.56;104852;1295;74157;-58
2023/09/19 05:33:42;;;;;;;8.40;4.00;;;;;;;16.58;79.55;100051.08;104842;1295;62284;-57
2023/09/19 05:36:29;;;;;;;4.10;3.70;;;;;;;16.64;79.83;100053.92;104820;1292;60553;-58
2023/09/19 05:39:16;;;;;;;5.20;3.50;;;;;;;16.69;79.51;100060.31;104884;1292;79019;-57
2023/09/19 05:42:03;;;;;;;6.50;3.40;;;;;;;16.76;80.49;100051.40;104832;1292;70007;-57
2023/09/19 05:44:49;;;;;;;3.90;3.60;;;;;;;16.80;80.97;100049.82;106148;1292;71448;-56
2023/09/19 05:47:35;;;;;;;6.10;3.40;;;;;;;16.84;80.46;100050.81;106107;1292;58208;-58
2023/09/19 05:50:23;;;;;;;6.80;3.30;;;;;;;16.93;80.02;100054.04;106175;1292;59028;-57
2023/09/19 05:53:14;;;;;;;5.00;3.00;;;;;;;17.05;80.32;100054.95;106116;1292;72470;-58
2023/09/19 05:56:00;;;;;;;6.70;3.50;;;;;;;17.20;80.24;100057.98;106010;1292;67804;-58
2023/09/19 05:58:46;;;;;;;3.10;2.80;;;;;;;17.43;80.42;100058.36;106150;1291;73115;-58
2023/09/19 06:01:34;;;;;;;2.30;2.20;;;;;;;17.58;80.17;100056.66;105523;1291;62625;-57
2023/09/19 06:04:21;;;;;;;4.30;3.40;;;;;;;17.62;81.06;100049.64;104833;1292;59497;-58
2023/09/19 06:07:07;;;;;;;4.70;2.80;;;;;;;17.70;80.54;100045.05;104906;1292;72476;-58
2023/09/19 06:09:53;;;;;;;9.10;3.10;;;;;;;17.77;80.47;100045.34;104767;1292;66544;-58
2023/09/19 06:12:40;;;;;;;5.70;3.20;;;;;;;17.78;80.45;100051.06;97720;1295;5003964;-58
2023/09/19 06:15:26;;;;;;;3.90;3.00;;;;;;;17.74;80.38;100057.90;106089;1292;59589;-58
2023/09/19 06:18:19;;;;;;;4.40;2.60;;;;;;;17.73;80.41;100055.52;106245;1291;59040;-59
2023/09/19 06:21:07;;;;;;;5.90;2.50;;;;;;;17.69;80.10;100058.71;106197;1292;73243;-58
2023/09/19 06:23:53;;;;;;;4.30;2.50;;;;;;;17.72;81.20;100055.70;106217;1292;67342;-58
2023/09/19 06:26:39;;;;;;;3.20;2.90;;;;;;;17.78;80.88;100063.43;106122;1292;71122;-58
2023/09/19 06:29:26;;;;;;;5.40;2.90;;;;;;;17.87;80.42;100060.31;106194;1293;58711;-58
2023/09/19 06:32:12;;;;;;;5.10;3.20;;;;;;;17.89;80.67;100064.42;106210;1292;59953;-56
2023/09/19 06:34:58;;;;;;;5.40;3.40;;;;;;;17.84;80.59;100070.39;106189;1292;73038;-56
2023/09/19 06:37:44;;;;;;;2.80;2.50;;;;;;;17.81;81.07;100074.08;106177;1292;67515;-58
2023/09/19 06:40:30;;;;;;;4.90;2.60;;;;;;;17.73;80.48;100073.29;106206;1293;72594;-58
2023/09/19 06:43:16;;;;;;;5.40;3.00;;;;;;;17.71;80.58;100074.09;106224;1292;60606;-57
2023/09/19 06:46:04;;;;;;;8.30;3.00;;;;;;;17.82;80.76;100080.12;106228;1292;58297;-58
2023/09/19 06:48:52;;;;;;;9.20;3.20;;;;;;;17.86;80.66;100084.27;106222;1289;73731;-58
2023/09/19 06:51:37;;;;;;;5.50;2.60;;;;;;;17.92;80.50;100087.10;106175;1291;67406;-58
2023/09/19 06:54:23;;;;;;;3.80;2.90;;;;;;;18.03;80.82;100092.71;106258;1293;72361;-58
2023/09/19 06:57:09;;;;;;;5.70;3.10;;;;;;;18.17;80.62;100097.52;106165;1291;58304;-58
2023/09/19 06:59:55;;;;;;;4.00;2.80;;;;;;;18.11;80.90;100107.29;106212;1293;59078;-58
2023/09/19 07:02:42;;;;;;;6.40;2.80;;;;;;;18.06;81.14;100110.19;106189;1292;72556;-57
2023/09/19 07:05:28;;;;;;;3.90;2.60;;;;;;;18.09;80.68;100112.80;105328;1293;68005;-58
2023/09/19 07:08:15;;;;;;;3.60;3.10;;;;;;;18.15;81.23;100118.95;104917;1293;71223;-58
2023/09/19 07:11:01;;;;;;;3.60;2.90;;;;;;;18.32;81.55;100121.45;104882;1290;60334;-58
2023/09/19 07:13:47;;;;;;;4.80;3.00;;;;;;;18.53;81.11;100123.77;104948;1293;60219;-57
2023/09/19 07:16:34;;;;;;;5.60;3.00;;;;;;;18.77;81.24;100129.73;104825;1293;72515;-58
2023/09/19 07:19:20;;;;;;;5.00;2.40;;;;;;;18.91;80.84;100132.09;104852;1292;66409;-57
2023/09/19 07:22:07;;;;;;;10.30;2.90;;;;;;;19.20;80.92;100141.86;104902;1295;73033;-57
2023/09/19 07:24:54;;;;;;;5.90;3.10;;;;;;;19.45;80.54;100138.94;104964;1291;60998;-57
2023/09/19 07:27:41;;;;;;;3.40;2.90;;;;;;;19.75;80.42;100149.20;104966;1292;60097;-56
2023/09/19 07:30:27;;;;;;;;;;;;;;;19.74;80.06;100144.54;106287;1292;72421;-58
2023/09/19 07:33:13;;;;;;;3.80;2.20;;;;;;;19.61;79.89;100145.20;106250;1290;67491;-59
2023/09/19 07:35:59;;;;;;;2.60;2.30;;;;;;;19.50;80.06;100146.73;106259;1289;73493;-56
2023/09/19 07:38:45;;;;;;;4.00;2.70;;;;;;;19.38;80.00;100148.45;106258;1289;58170;-57
2023/09/19 07:41:32;;;;;;;9.80;3.90;;;;;;;19.29;80.37;100155.50;106282;1292;58903;-57
2023/09/19 07:44:19;;;;;;;5.80;3.60;;;;;;;19.28;80.14;100153.30;106213;1290;72549;-58
2023/09/19 07:47:05;;;;;;;10.00;4.00;;;;;;;19.58;80.44;100153.56;106255;1292;67868;-57
2023/09/19 07:49:50;;;;;;;8.80;4.00;;;;;;;19.98;80.34;100154.40;106245;1289;72295;-57
2023/09/19 07:52:39;;;;;;;10.70;3.60;;;;;;;20.39;80.01;100163.04;106188;1294;58438;-56
2023/09/19 07:55:25;;;;;;;4.10;2.20;;;;;;;20.64;79.19;100171.25;106250;1290;58848;-55
2023/09/19 07:58:13;;;;;;;4.30;2.20;;;;;;;20.74;78.46;100176.90;106227;1295;73751;-56
2023/09/19 08:01:06;;;;;;;2.80;1.90;;;;;;;20.76;78.01;100185.69;106286;1292;68446;-57
2023/09/19 08:03:52;;;;;;;4.60;2.10;;;;;;;21.20;77.12;100189.08;106210;1291;72416;-58
2023/09/19 08:06:39;;;;;;;2.70;1.80;;;;;;;21.65;75.43;100191.13;106251;1290;59358;-59
2023/09/19 08:09:25;;;;;;;;;;;;;;;22.02;74.99;100197.50;106251;1289;60074;-58
2023/09/19 08:12:11;;;;;;;4.70;1.90;;;;;;;22.28;75.53;100199.70;106210;1289;73709;-58
2023/09/19 08:14:57;;;;;;;3.40;1.60;;;;;;;22.06;74.63;100211.56;106204;1290;67603;-57
2023/09/19 08:17:43;;;;;;;3.40;1.60;;;;;;;21.80;75.14;100211.81;106190;1292;71128;-56
2023/09/19 08:20:29;;;;;;;1.70;1.50;;;;;;;21.50;74.98;100214.90;106253;1289;58340;-58
2023/09/19 08:23:17;;;;;;;2.60;1.60;;;;;;;21.14;75.80;100221.40;106213;1291;60044;-57
2023/09/19 08:26:06;;;;;;;2.30;1.60;;;;;;;20.81;74.94;100216.35;106189;1294;72576;-58
2023/09/19 08:28:53;;;;;;;2.60;1.80;;;;;;;20.67;75.79;100221.69;106226;1289;67293;-57
2023/09/19 08:31:39;;;;;;;3.20;2.20;;;;;;;20.63;75.16;100223.66;106122;1292;72503;-59
2023/09/19 08:34:25;;;;;;;5.90;1.60;;;;;;;20.51;73.93;100225.15;106060;1289;59772;-59
2023/09/19 08:37:11;;;;;;;3.20;1.30;;;;;;;20.52;74.52;100224.20;106197;1291;58869;-59
2023/09/19 08:39:57;;;;;;;3.20;1.60;;;;;;;20.59;74.28;100229.75;106185;1292;72626;-57
2023/09/19 08:42:54;;;;;;;3.00;1.50;;;;;;;20.49;73.33;100230.14;106199;1293;68427;-57
2023/09/19 08:45:40;;;;;;;3.20;1.20;;;;;;;20.31;74.24;100223.58;106187;1292;72564;-58
2023/09/19 08:48:30;;;;;;;2.90;1.10;;;;;;;20.41;73.67;100227.85;106205;1292;58481;-57
2023/09/19 08:51:30;;;;;;;1.70;1.40;;;;;;;20.53;73.81;100226.91;106200;1292;58811;-57
2023/09/19 08:54:29;;;;;;;3.20;1.50;;;;;;;20.96;71.29;100229.53;106197;1289;73269;-56
2023/09/19 08:57:21;;;;;;;3.00;1.80;;;;;;;21.26;72.45;100231.83;106165;1292;68610;-58
2023/09/19 09:00:10;;;;;;;3.50;1.80;;;;;;;21.02;71.36;100225.11;106076;1289;73520;-56
2023/09/19 09:02:57;;;;;;;2.00;1.20;;;;;;;20.88;71.42;100222.75;106240;1292;58202;-57
2023/09/19 09:05:47;;;;;;;2.90;1.30;;;;;;;20.71;71.01;100231.02;106150;1290;58921;-58
2023/09/19 09:08:33;;;;;;;3.40;1.40;;;;;;;20.86;71.78;100236.52;105084;1296;72593;-57
2023/09/19 09:11:20;;;;;;;2.20;1.60;;;;;;;21.30;71.85;100237.30;105341;1292;68571;-57
2023/09/19 09:14:09;;;;;;;3.80;1.60;;;;;;;21.60;71.55;100245.50;104867;1290;71913;-57
2023/09/19 09:16:58;;;;;;;;;;;;;;;21.99;72.48;100251.06;104865;1295;60374;-56
2023/09/19 09:19:44;;;;;;;;;;;;;;;22.62;71.29;100245.30;104813;1295;60249;-57
2023/09/19 09:22:31;;;;;;;;;;;;;;;22.93;69.61;100251.51;104965;1293;72362;-58
2023/09/19 09:25:18;;;;;;;;;;;;;;;23.23;68.24;100255.10;104868;1293;67270;-57
2023/09/19 09:28:04;;;;;;;;;;;;;;;23.82;68.75;100256.09;104962;1292;76014;-57
2023/09/19 09:30:51;;;;;;;;;;;;;;;24.89;67.26;100258.50;104936;1292;60478;-58
2023/09/19 09:33:37;;;;;;;;;;;;;;;25.85;66.20;100266.13;104883;1292;60625;-57
2023/09/19 09:36:41;;;;;;;;;;;;;;;26.21;64.73;100263.94;104920;1294;72903;-57
2023/09/19 09:39:31;;;;;;;;;;;;;;;26.91;64.75;100269.89;106280;1290;67491;-58
2023/09/19 09:42:33;;;;;;;;;;;;;;;26.53;60.21;100280.05;106280;1291;71284;-58
2023/09/19 09:45:36;;;;;;;;;;;;;;;26.40;61.79;100283.30;106164;1292;58119;-57
2023/09/19 09:48:31;;;;;;;;;;;;;;;26.71;62.57;100289.06;105450;1292;60379;-56
2023/09/19 09:51:30;;;;;;;;;;;;;;;27.43;56.87;100300.19;104920;1293;72449;-57
2023/09/19 09:54:20;;;;;;;;;;;;;;;27.22;55.53;100304.05;104899;1295;67532;-57
2023/09/19 09:57:25;;;;;;;;;;;;;;;26.28;58.67;100308.00;104885;1294;70530;-57
2023/09/19 10:03:00;;;;;;;;;;;;;;;27.45;61.40;100301.26;104856;1293;60742;-58
2023/09/19 10:05:55;;;;;;;;;;;;;;;28.19;57.97;100299.97;104877;1292;72327;-57
2023/09/19 10:09:01;;;;;;;;;;;;;;;27.55;57.21;100302.09;104936;1292;67260;-56
2023/09/19 10:11:54;;;;;;;;;;;;;;;27.69;59.96;100299.17;104926;1292;75413;-56
2023/09/19 10:14:42;;;;;;;;;;;;;;;28.15;54.12;100289.91;104923;1292;60384;-56
2023/09/19 10:17:30;;;;;;;;;;;;;;;27.90;52.22;100287.56;104996;1293;61427;-56
2023/09/19 10:20:38;;;;;;;;;;;;;;;28.21;52.21;100289.88;104950;1291;73211;-57
2023/09/19 10:23:25;;;;;;;;;;;;;;;27.99;50.82;100288.09;105605;1291;158832;-56
2023/09/19 10:26:11;;;;;;;;;;;;;;;28.15;53.69;100288.00;105731;1291;71259;-56
2023/09/19 10:29:02;;;;;;;;;;;;;;;28.53;53.64;100282.91;104840;1295;60430;-56
2023/09/19 10:31:50;;;;;;;;;;;;;;;29.10;51.20;100287.48;104943;1291;60437;-54
2023/09/19 10:34:37;;;;;;;;;;;;;;;29.31;50.11;100292.83;104900;1294;72275;-56
2023/09/19 10:37:25;;;;;;;;;;;;;;;29.68;51.93;100291.58;106253;1292;67309;-57
2023/09/19 10:40:12;;;;;;;;;;;;;;;29.05;49.66;100293.77;106253;1291;72445;-57
2023/09/19 10:43:05;;;;;;;;;;;;;;;27.49;48.04;100290.27;106202;1291;59871;-56
2023/09/19 10:45:53;;;;;;;;;;;;;;;26.51;49.81;100296.48;106046;1291;60648;-56
2023/09/19 10:48:40;;;;;;;;;;;;;;;25.81;47.72;100303.30;104967;1292;72466;-55
2023/09/19 10:51:31;;;;;;;;;;;;;;;25.64;47.44;100310.69;104941;1291;68219;-56
2023/09/19 10:54:21;;;;;;;;;;;;;;;26.44;49.08;100307.19;104940;1294;71513;-56
2023/09/19 10:57:09;;;;;;;;;;;;;;;28.04;48.75;100299.48;104900;1292;60340;-56
2023/09/19 11:00:06;;;;;;;;;;;;;;;28.75;46.32;100304.60;105022;1292;60483;-57
2023/09/19 11:03:11;;;;;;;;;;;;;;;29.20;43.14;100317.18;104930;1294;72432;-57
2023/09/19 11:06:05;;;;;;;;;;;;;;;29.02;44.64;100318.10;104959;1292;71351;-57
2023/09/19 11:08:51;;;;;;;;;;;;;;;29.74;45.82;100326.71;104716;1292;311609;-58
2023/09/19 11:11:40;;;;;;;;;;;;;;;29.56;39.93;100335.08;106148;1292;58581;-57
2023/09/19 11:14:26;;;;;;;;;;;;;;;28.68;41.35;100339.25;106157;1292;58851;-59
2023/09/19 11:17:21;;;;;;;;;;;;;;;27.65;41.61;100343.18;106173;1291;73392;-57
2023/09/19 11:23:17;;;;;;;;;;;;;;;26.76;44.04;100348.75;104887;1292;71377;-58
2023/09/19 11:26:04;;;;;;;;;;;;;;;26.97;42.42;100353.45;106164;1291;58101;-57
2023/09/19 11:29:10;;;;;;;;;;;;;;;26.80;42.82;100351.56;106130;1291;58591;-58
2023/09/19 11:31:59;;;;;;;;;;;;;;;27.36;41.97;100348.66;106150;1292;73491;-57
2023/09/19 11:34:46;;;;;;;;;;;;;;;27.80;42.24;100342.65;106211;1292;68244;-58
2023/09/19 11:37:35;;;;;;;;;;;;;;;28.42;41.13;100342.17;105816;1292;71381;-57
2023/09/19 11:40:22;;;;;;;;;;;;;;;28.90;41.40;100340.70;104863;1291;60409;-58
2023/09/19 11:43:30;;;;;;;;;;;;;;;29.02;38.87;100341.96;104868;1292;60348;-58
2023/09/19 11:46:21;;;;;;;;;;;;;;;27.96;38.69;100347.91;104898;1292;77095;-58
2023/09/19 11:49:09;;;;;;;;;;;;;;;27.16;39.66;100342.55;104840;1292;71642;-58
2023/09/19 11:51:57;;;;;;;;;;;;;;;27.74;39.27;100341.84;104859;1291;71333;-57
2023/09/19 11:54:45;;;;;;;;;;;;;;;27.72;39.78;100340.53;104825;1292;60387;-56
2023/09/19 11:57:31;;;;;;;;;;;;;;;28.13;38.80;100342.77;104900;1292;60245;-58
2023/09/19 12:00:18;;;;;;;;;;;;;;;28.91;39.70;100339.73;104801;1291;72523;-57
2023/09/19 12:03:11;;;;;;;;;;;;;;;29.88;39.00;100346.71;104898;1291;67976;-55
2023/09/19 12:05:58;;;;;;;;;;;;;;;29.68;35.32;100343.39;104822;1292;71269;-57
2023/09/19 12:08:48;;;;;;;;;;;;;;;29.61;36.49;100345.90;104834;1295;60274;-57
2023/09/19 12:11:43;;;;;;;;;;;;;;;30.20;37.68;100344.20;104898;1291;60332;-59
2023/09/19 12:14:30;;;;;;;;;;;;;;;30.31;35.41;100346.09;104828;1292;72937;-57
2023/09/19 12:17:22;;;;;;;;;;;;;;;30.06;34.69;100347.05;106216;1292;68130;-59
2023/09/19 12:20:16;;;;;;;;;;;;;;;29.70;35.29;100337.90;104945;1292;71312;-58
2023/09/19 12:23:13;;;;;;;;;;;;;;;29.80;34.88;100335.95;104802;1292;60472;-57
2023/09/19 12:26:12;;;;;;;;;;;;;;;28.61;36.37;100328.77;104840;1292;63366;-57
2023/09/19 12:28:58;;;;;;;;;;;;;;;28.40;37.43;100330.11;104906;1292;72385;-58
2023/09/19 12:31:51;;;;;;;;;;;;;;;28.67;36.05;100328.94;104842;1292;67244;-57
2023/09/19 12:34:42;;;;;;;;;;;;;;;27.38;36.01;100331.42;101224;1291;5002498;-58
2023/09/19 12:37:29;;;;;;;;;;;;;;;25.82;37.37;100329.42;104833;1292;60308;-58
2023/09/19 12:40:22;;;;;;;;;;;;;;;25.23;38.34;100332.09;104861;1292;61676;-56
2023/09/19 12:43:09;;;;;;;;;;;;;;;24.75;38.62;100334.17;104883;1292;72349;-57
2023/09/19 12:45:55;;;;;;;;;;;;;;;24.98;38.14;100335.67;104941;1292;69994;-58
2023/09/19 12:48:44;;;;;;;;;;;;;;;24.76;38.38;100340.95;104779;1293;76305;-56
2023/09/19 12:51:34;;;;;;;;;;;;;;;24.31;38.86;100331.21;104800;1292;61335;-57
2023/09/19 12:54:22;;;;;;;;;;;;;;;25.08;38.52;100330.34;104759;1292;60390;-57
2023/09/19 12:57:08;;;;;;;;;;;;;;;24.58;38.20;100337.48;104887;1292;71405;-57
2023/09/19 12:59:54;;;;;;;;;;;;;;;24.51;38.73;100342.09;104903;1291;67267;-59
2023/09/19 13:03:00;;;;;;;;;;;;;;;24.36;39.09;100339.42;104820;1292;71954;-57
2023/09/19 13:05:51;;;;;;;;;;;;;;;24.46;39.60;100339.17;104788;1292;60364;-56
2023/09/19 13:08:39;;;;;;;;;;;;;;;24.70;39.52;100340.92;105340;1292;59237;-56
2023/09/19 13:11:38;;;;;;;;;;;;;;;25.01;39.44;100344.31;104765;1292;74057;-57
2023/09/19 13:14:31;;;;;;;;;;;;;;;24.75;39.45;100347.30;104853;1292;70729;-58
2023/09/19 13:17:19;;;;;;;;;;;;;;;24.20;39.39;100353.28;104862;1291;75409;-56
2023/09/19 13:20:06;;;;;;;;;;;;;;;23.70;39.87;100341.65;104849;1292;61089;-56
2023/09/19 13:22:54;;;;;;;;;;;;;;;23.39;40.38;100346.60;104805;1292;60339;-56
2023/09/19 13:25:40;;;;;;;;;;;;;;;23.26;40.87;100345.14;104846;1292;75617;-57
2023/09/19 13:28:28;;;;;;;;;;;;;;;23.28;40.87;100346.17;104775;1292;67338;-54